sensor_id;sensor_type;location;lat;lon;timestamp;pressure;altitude;pressure_sealevel;temperature;humidity
32320;BME280;19080;51.750;5.888;2023-04-24T00:01:02;99745.19;;;10.86;100.00
32320;BME280;19080;51.750;5.888;2023-04-24T00:03:29;99760.19;;;10.96;100.00
32320;BME280;19080;51.750;5.888;2023-04-24T00:05:56;99758.44;;;10.92;100.00
32320;BME280;19080;51.750;5.888;2023-04-24T00:08:23;99757.53;;;10.93;100.00
32320;BME280;19080;51.750;5.888;2023-04-24T00:10:50;99765.50;;;10.93;100.00
32320;BME280;19080;51.750;5.888;2023-04-24T00:13:19;99719.59;;;10.64;100.00
32320;BME280;19080;51.750;5.888;2023-04-24T00:15:46;99750.50;;;10.80;100.00
32320;BME280;19080;51.750;5.888;2023-04-24T00:18:13;99685.19;;;10.41;100.00
32320;BME280;19080;51.750;5.888;2023-04-24T00:20:40;99740.78;;;10.76;100.00
32320;BME280;19080;51.750;5.888;2023-04-24T00:23:07;99753.16;;;10.80;100.00
32320;BME280;19080;51.750;5.888;2023-04-24T00:25:33;99764.63;;;10.91;100.00
32320;BME280;19080;51.750;5.888;2023-04-24T00:28:00;99726.69;;;10.62;100.00
32320;BME280;19080;51.750;5.888;2023-04-24T00:30:27;99767.28;;;10.94;100.00
32320;BME280;19080;51.750;5.888;2023-04-24T00:32:54;99730.22;;;10.67;100.00
32320;BME280;19080;51.750;5.888;2023-04-24T00:35:23;99739.91;;;10.74;100.00
32320;BME280;19080;51.750;5.888;2023-04-24T00:37:51;99754.03;;;10.85;100.00
32320;BME280;19080;51.750;5.888;2023-04-24T00:40:17;99755.81;;;10.86;100.00
32320;BME280;19080;51.750;5.888;2023-04-24T00:42:44;99776.09;;;11.02;100.00
32320;BME280;19080;51.750;5.888;2023-04-24T00:45:11;99764.63;;;10.90;100.00
32320;BME280;19080;51.750;5.888;2023-04-24T00:47:38;99754.03;;;10.88;100.00
32320;BME280;19080;51.750;5.888;2023-04-24T00:50:06;99758.44;;;10.89;100.00
32320;BME280;19080;51.750;5.888;2023-04-24T00:52:33;99761.09;;;10.91;100.00
32320;BME280;19080;51.750;5.888;2023-04-24T00:55:00;99765.50;;;10.99;100.00
32320;BME280;19080;51.750;5.888;2023-04-24T00:57:27;99747.84;;;10.83;100.00
32320;BME280;19080;51.750;5.888;2023-04-24T00:59:54;99786.72;;;11.01;100.00
32320;BME280;19080;51.750;5.888;2023-04-24T01:02:21;99739.91;;;10.75;100.00
32320;BME280;19080;51.750;5.888;2023-04-24T01:04:50;99729.31;;;10.68;100.00
32320;BME280;19080;51.750;5.888;2023-04-24T01:07:19;99727.56;;;10.62;100.00
32320;BME280;19080;51.750;5.888;2023-04-24T01:09:48;99763.78;;;10.83;100.00
32320;BME280;19080;51.750;5.888;2023-04-24T01:12:15;99763.75;;;10.86;100.00
32320;BME280;19080;51.750;5.888;2023-04-24T01:14:44;99699.31;;;10.49;100.00
32320;BME280;19080;51.750;5.888;2023-04-24T01:17:11;99673.75;;;10.28;100.00
32320;BME280;19080;51.750;5.888;2023-04-24T01:19:38;99698.44;;;10.46;100.00
32320;BME280;19080;51.750;5.888;2023-04-24T01:22:10;99761.13;;;10.80;100.00
32320;BME280;19080;51.750;5.888;2023-04-24T01:24:42;99744.38;;;10.63;100.00
32320;BME280;19080;51.750;5.888;2023-04-24T01:27:11;99756.75;;;10.61;100.00
32320;BME280;19080;51.750;5.888;2023-04-24T01:29:39;99770.00;;;10.67;100.00
32320;BME280;19080;51.750;5.888;2023-04-24T01:32:07;99727.66;;;10.32;100.00
32320;BME280;19080;51.750;5.888;2023-04-24T01:34:34;99694.06;;;10.16;100.00
32320;BME280;19080;51.750;5.888;2023-04-24T01:37:01;99728.56;;;10.22;100.00
32320;BME280;19080;51.750;5.888;2023-04-24T01:39:27;99748.88;;;10.36;100.00
32320;BME280;19080;51.750;5.888;2023-04-24T01:41:55;99683.50;;;9.99;100.00
32320;BME280;19080;51.750;5.888;2023-04-24T01:44:23;99754.19;;;10.33;100.00
32320;BME280;19080;51.750;5.888;2023-04-24T01:46:50;99733.88;;;10.20;100.00
32320;BME280;19080;51.750;5.888;2023-04-24T01:49:17;99751.56;;;10.24;100.00
32320;BME280;19080;51.750;5.888;2023-04-24T01:51:44;99779.84;;;10.31;100.00
32320;BME280;19080;51.750;5.888;2023-04-24T01:54:11;99762.13;;;10.18;100.00
32320;BME280;19080;51.750;5.888;2023-04-24T01:56:42;99771.00;;;10.23;100.00
32320;BME280;19080;51.750;5.888;2023-04-24T01:59:12;99573.16;;;9.06;100.00
32320;BME280;19080;51.750;5.888;2023-04-24T02:01:39;99781.56;;;10.14;100.00
32320;BME280;19080;51.750;5.888;2023-04-24T02:04:07;99750.66;;;9.99;100.00
32320;BME280;19080;51.750;5.888;2023-04-24T02:06:35;99719.72;;;9.78;100.00
32320;BME280;19080;51.750;5.888;2023-04-24T02:09:02;99749.75;;;10.02;100.00
32320;BME280;19080;51.750;5.888;2023-04-24T02:11:29;99781.56;;;10.14;100.00
32320;BME280;19080;51.750;5.888;2023-04-24T02:13:57;99778.94;;;10.08;100.00
32320;BME280;19080;51.750;5.888;2023-04-24T02:16:25;99778.03;;;10.06;100.00
32320;BME280;19080;51.750;5.888;2023-04-24T02:18:52;99737.41;;;9.84;100.00
32320;BME280;19080;51.750;5.888;2023-04-24T02:21:19;99766.53;;;9.92;100.00
32320;BME280;19080;51.750;5.888;2023-04-24T02:23:45;99718.84;;;9.61;100.00
32320;BME280;19080;51.750;5.888;2023-04-24T02:26:12;99771.84;;;9.92;100.00
32320;BME280;19080;51.750;5.888;2023-04-24T02:28:39;99697.63;;;9.52;100.00
32320;BME280;19080;51.750;5.888;2023-04-24T02:31:06;99731.19;;;9.64;100.00
32320;BME280;19080;51.750;5.888;2023-04-24T02:33:33;99750.63;;;9.79;100.00
32320;BME280;19080;51.750;5.888;2023-04-24T02:36:01;99770.09;;;9.91;100.00
32320;BME280;19080;51.750;5.888;2023-04-24T02:38:29;99638.44;;;9.10;100.00
32320;BME280;19080;51.750;5.888;2023-04-24T02:40:55;99773.63;;;9.90;100.00
32320;BME280;19080;51.750;5.888;2023-04-24T02:43:22;99755.06;;;9.81;100.00
32320;BME280;19080;51.750;5.888;2023-04-24T02:45:49;99735.59;;;9.63;100.00
32320;BME280;19080;51.750;5.888;2023-04-24T02:48:16;99780.69;;;9.85;100.00
32320;BME280;19080;51.750;5.888;2023-04-24T02:50:43;99758.59;;;9.73;100.00
32320;BME280;19080;51.750;5.888;2023-04-24T02:53:10;99765.66;;;9.84;100.00
32320;BME280;19080;51.750;5.888;2023-04-24T02:55:37;99753.28;;;9.67;100.00
32320;BME280;19080;51.750;5.888;2023-04-24T02:58:03;99765.66;;;9.79;100.00
32320;BME280;19080;51.750;5.888;2023-04-24T03:00:30;99685.25;;;9.30;100.00
32320;BME280;19080;51.750;5.888;2023-04-24T03:02:57;99717.94;;;9.47;100.00
32320;BME280;19080;51.750;5.888;2023-04-24T03:05:24;99747.94;;;9.52;100.00
32320;BME280;19080;51.750;5.888;2023-04-24T03:07:50;99681.69;;;9.17;100.00
32320;BME280;19080;51.750;5.888;2023-04-24T03:10:20;99789.50;;;9.73;100.00
32320;BME280;19080;51.750;5.888;2023-04-24T03:12:49;99776.25;;;9.73;100.00
32320;BME280;19080;51.750;5.888;2023-04-24T03:15:17;99786.84;;;9.71;100.00
32320;BME280;19080;51.750;5.888;2023-04-24T03:17:44;99749.72;;;9.47;100.00
32320;BME280;19080;51.750;5.888;2023-04-24T03:20:11;99719.66;;;9.33;100.00
32320;BME280;19080;51.750;5.888;2023-04-24T03:22:38;99749.72;;;9.50;100.00
32320;BME280;19080;51.750;5.888;2023-04-24T03:25:07;99770.94;;;9.59;100.00
32320;BME280;19080;51.750;5.888;2023-04-24T03:27:36;99756.78;;;9.54;100.00
32320;BME280;19080;51.750;5.888;2023-04-24T03:30:31;99789.50;;;9.70;100.00
32320;BME280;19080;51.750;5.888;2023-04-24T03:32:59;99766.50;;;9.60;100.00
32320;BME280;19080;51.750;5.888;2023-04-24T03:35:29;99747.03;;;9.41;100.00
32320;BME280;19080;51.750;5.888;2023-04-24T03:38:00;99787.72;;;9.66;100.00
32320;BME280;19080;51.750;5.888;2023-04-24T03:40:45;99788.59;;;9.69;100.00
32320;BME280;19080;51.750;5.888;2023-04-24T03:43:44;99789.50;;;9.70;100.00
32320;BME280;19080;51.750;5.888;2023-04-24T03:46:11;99709.06;;;9.25;100.00
32320;BME280;19080;51.750;5.888;2023-04-24T03:48:43;99761.22;;;9.58;100.00
32320;BME280;19080;51.750;5.888;2023-04-24T03:51:10;99774.47;;;9.64;100.00
32320;BME280;19080;51.750;5.888;2023-04-24T03:53:41;99770.94;;;9.71;100.00
32320;BME280;19080;51.750;5.888;2023-04-24T03:56:10;99773.59;;;9.67;100.00
32320;BME280;19080;51.750;5.888;2023-04-24T03:58:37;99774.47;;;9.67;100.00
32320;BME280;19080;51.750;5.888;2023-04-24T04:01:04;99766.50;;;9.63;100.00
32320;BME280;19080;51.750;5.888;2023-04-24T04:03:53;99767.41;;;9.62;100.00
32320;BME280;19080;51.750;5.888;2023-04-24T04:06:27;99767.38;;;9.57;100.00
32320;BME280;19080;51.750;5.888;2023-04-24T04:08:56;99771.81;;;9.67;100.00
32320;BME280;19080;51.750;5.888;2023-04-24T04:11:23;99759.44;;;9.54;100.00
32320;BME280;19080;51.750;5.888;2023-04-24T04:13:50;99763.00;;;9.64;100.00
32320;BME280;19080;51.750;5.888;2023-04-24T04:16:20;99800.97;;;9.75;100.00
32320;BME280;19080;51.750;5.888;2023-04-24T04:18:49;99773.59;;;9.65;100.00
32320;BME280;19080;51.750;5.888;2023-04-24T04:21:16;99761.19;;;9.54;100.00
32320;BME280;19080;51.750;5.888;2023-04-24T04:23:43;99770.91;;;9.56;100.00
32320;BME280;19080;51.750;5.888;2023-04-24T04:26:18;99796.56;;;9.71;100.00
32320;BME280;19080;51.750;5.888;2023-04-24T04:29:08;99775.34;;;9.60;100.00
32320;BME280;19080;51.750;5.888;2023-04-24T04:31:40;99775.34;;;9.63;100.00
32320;BME280;19080;51.750;5.888;2023-04-24T04:34:11;99796.56;;;9.69;100.00
32320;BME280;19080;51.750;5.888;2023-04-24T04:36:41;99777.13;;;9.66;100.00
32320;BME280;19080;51.750;5.888;2023-04-24T04:39:22;99756.78;;;9.51;100.00
32320;BME280;19080;51.750;5.888;2023-04-24T04:41:58;99781.53;;;9.68;100.00
32320;BME280;19080;51.750;5.888;2023-04-24T04:44:33;99761.22;;;9.55;100.00
32320;BME280;19080;51.750;5.888;2023-04-24T04:47:04;99787.72;;;9.70;100.00
32320;BME280;19080;51.750;5.888;2023-04-24T04:49:37;99778.88;;;9.67;100.00
32320;BME280;19080;51.750;5.888;2023-04-24T04:52:09;99787.72;;;9.76;100.00
32320;BME280;19080;51.750;5.888;2023-04-24T04:54:36;99783.28;;;9.63;100.00
32320;BME280;19080;51.750;5.888;2023-04-24T04:57:03;99771.81;;;9.61;100.00
32320;BME280;19080;51.750;5.888;2023-04-24T04:59:34;99676.38;;;9.08;100.00
32320;BME280;19080;51.750;5.888;2023-04-24T05:02:05;99755.00;;;9.44;100.00
32320;BME280;19080;51.750;5.888;2023-04-24T05:04:32;99790.34;;;9.54;100.00
32320;BME280;19080;51.750;5.888;2023-04-24T05:06:59;99792.09;;;9.50;100.00
32320;BME280;19080;51.750;5.888;2023-04-24T05:09:29;99771.75;;;9.38;100.00
32320;BME280;19080;51.750;5.888;2023-04-24T05:12:02;99773.53;;;9.44;100.00
32320;BME280;19080;51.750;5.888;2023-04-24T05:14:32;99785.91;;;9.48;100.00
32320;BME280;19080;51.750;5.888;2023-04-24T05:16:59;99765.56;;;9.32;100.00
32320;BME280;19080;51.750;5.888;2023-04-24T05:19:26;99765.56;;;9.32;100.00
32320;BME280;19080;51.750;5.888;2023-04-24T05:21:53;99788.53;;;9.42;100.00
32320;BME280;19080;51.750;5.888;2023-04-24T05:24:20;99801.78;;;9.42;100.00
32320;BME280;19080;51.750;5.888;2023-04-24T05:27:25;99781.44;;;9.29;100.00
32320;BME280;19080;51.750;5.888;2023-04-24T05:29:52;99769.94;;;9.21;100.00
32320;BME280;19080;51.750;5.888;2023-04-24T05:32:18;99790.28;;;9.31;100.00
32320;BME280;19080;51.750;5.888;2023-04-24T05:34:45;99769.94;;;9.22;100.00
32320;BME280;19080;51.750;5.888;2023-04-24T05:37:13;99800.88;;;9.32;100.00
32320;BME280;19080;51.750;5.888;2023-04-24T05:39:41;99797.34;;;9.32;100.00
32320;BME280;19080;51.750;5.888;2023-04-24T05:42:08;99825.63;;;9.42;100.00
32320;BME280;19080;51.750;5.888;2023-04-24T05:44:35;99816.75;;;9.34;100.00
32320;BME280;19080;51.750;5.888;2023-04-24T05:47:01;99800.88;;;9.34;100.00
32320;BME280;19080;51.750;5.888;2023-04-24T05:49:28;99811.50;;;9.40;100.00
32320;BME280;19080;51.750;5.888;2023-04-24T05:51:56;99792.06;;;9.35;100.00
32320;BME280;19080;51.750;5.888;2023-04-24T05:54:23;99804.41;;;9.39;100.00
32320;BME280;19080;51.750;5.888;2023-04-24T05:56:51;99798.25;;;9.40;100.00
32320;BME280;19080;51.750;5.888;2023-04-24T05:59:28;99805.31;;;9.45;100.00
32320;BME280;19080;51.750;5.888;2023-04-24T06:01:56;99815.03;;;9.48;100.00
32320;BME280;19080;51.750;5.888;2023-04-24T06:04:23;99821.22;;;9.50;100.00
32320;BME280;19080;51.750;5.888;2023-04-24T06:06:51;99829.16;;;9.44;100.00
32320;BME280;19080;51.750;5.888;2023-04-24T06:09:22;99826.53;;;9.49;100.00
32320;BME280;19080;51.750;5.888;2023-04-24T06:11:49;99838.03;;;9.58;100.00
32320;BME280;19080;51.750;5.888;2023-04-24T06:14:17;99826.53;;;9.50;100.00
32320;BME280;19080;51.750;5.888;2023-04-24T06:17:02;99853.94;;;9.58;100.00
32320;BME280;19080;51.750;5.888;2023-04-24T06:19:34;99849.50;;;9.56;100.00
32320;BME280;19080;51.750;5.888;2023-04-24T06:22:02;99864.53;;;9.58;100.00
32320;BME280;19080;51.750;5.888;2023-04-24T06:24:29;99860.09;;;9.59;100.00
32320;BME280;19080;51.750;5.888;2023-04-24T06:26:57;99857.41;;;9.46;100.00
32320;BME280;19080;51.750;5.888;2023-04-24T06:29:25;99852.13;;;9.45;100.00
32320;BME280;19080;51.750;5.888;2023-04-24T06:31:52;99866.28;;;9.53;100.00
32320;BME280;19080;51.750;5.888;2023-04-24T06:34:18;99777.75;;;8.92;100.00
32320;BME280;19080;51.750;5.888;2023-04-24T06:36:46;99846.78;;;9.36;100.00
32320;BME280;19080;51.750;5.888;2023-04-24T06:39:13;99872.38;;;9.35;100.00
32320;BME280;19080;51.750;5.888;2023-04-24T06:41:40;99859.13;;;9.31;100.00
32320;BME280;19080;51.750;5.888;2023-04-24T06:44:09;99874.13;;;9.30;100.00
32320;BME280;19080;51.750;5.888;2023-04-24T06:46:36;99873.25;;;9.30;100.00
32320;BME280;19080;51.750;5.888;2023-04-24T06:49:06;99820.06;;;8.87;100.00
32320;BME280;19080;51.750;5.888;2023-04-24T06:51:33;99884.69;;;9.24;100.00
32320;BME280;19080;51.750;5.888;2023-04-24T06:53:59;99894.41;;;9.27;100.00
32320;BME280;19080;51.750;5.888;2023-04-24T06:56:26;99921.88;;;9.50;100.00
32320;BME280;19080;51.750;5.888;2023-04-24T06:58:55;99908.63;;;9.47;100.00
32320;BME280;19080;51.750;5.888;2023-04-24T07:01:21;99875.94;;;9.39;100.00
32320;BME280;19080;51.750;5.888;2023-04-24T07:03:48;99886.56;;;9.48;100.00
32320;BME280;19080;51.750;5.888;2023-04-24T07:06:15;99937.91;;;9.77;100.00
32320;BME280;19080;51.750;5.888;2023-04-24T07:08:43;99905.13;;;9.54;100.00
32320;BME280;19080;51.750;5.888;2023-04-24T07:11:10;99936.97;;;9.63;100.00
32320;BME280;19080;51.750;5.888;2023-04-24T07:13:36;99952.88;;;9.69;100.00
32320;BME280;19080;51.750;5.888;2023-04-24T07:16:08;99979.34;;;9.63;100.00
32320;BME280;19080;51.750;5.888;2023-04-24T07:18:35;99974.91;;;9.61;100.00
32320;BME280;19080;51.750;5.888;2023-04-24T07:21:02;99952.72;;;9.39;100.00
32320;BME280;19080;51.750;5.888;2023-04-24T07:23:29;99942.09;;;9.34;100.00
32320;BME280;19080;51.750;5.888;2023-04-24T07:25:57;99866.81;;;8.85;100.00
32320;BME280;19080;51.750;5.888;2023-04-24T07:28:24;99987.28;;;9.59;100.00
32320;BME280;19080;51.750;5.888;2023-04-24T07:30:51;99959.81;;;9.46;100.00
32320;BME280;19080;51.750;5.888;2023-04-24T07:33:20;99958.00;;;9.36;100.00
32320;BME280;19080;51.750;5.888;2023-04-24T07:35:47;99974.84;;;9.49;100.00
32320;BME280;19080;51.750;5.888;2023-04-24T07:38:15;99978.41;;;9.52;100.00
32320;BME280;19080;51.750;5.888;2023-04-24T07:40:42;99958.91;;;9.36;100.00
32320;BME280;19080;51.750;5.888;2023-04-24T07:43:09;99996.06;;;9.53;100.00
32320;BME280;19080;51.750;5.888;2023-04-24T07:45:36;99950.91;;;9.27;100.00
32320;BME280;19080;51.750;5.888;2023-04-24T07:48:04;100010.16;;;9.44;100.00
32320;BME280;19080;51.750;5.888;2023-04-24T07:50:31;99949.03;;;9.12;100.00
32320;BME280;19080;51.750;5.888;2023-04-24T07:52:57;100002.19;;;9.41;100.00
32320;BME280;19080;51.750;5.888;2023-04-24T07:55:25;100025.97;;;9.35;100.00
32320;BME280;19080;51.750;5.888;2023-04-24T07:57:53;100045.47;;;9.46;100.00
32320;BME280;19080;51.750;5.888;2023-04-24T08:00:21;99987.78;;;9.04;100.00
32320;BME280;19080;51.750;5.888;2023-04-24T08:02:48;100010.78;;;9.08;100.00
32320;BME280;19080;51.750;5.888;2023-04-24T08:05:15;100047.94;;;9.21;100.00
32320;BME280;19080;51.750;5.888;2023-04-24T08:07:42;100094.81;;;9.35;100.00
32320;BME280;19080;51.750;5.888;2023-04-24T08:10:12;100107.22;;;9.38;100.00
32320;BME280;19080;51.750;5.888;2023-04-24T08:12:39;100026.47;;;8.86;100.00
32320;BME280;19080;51.750;5.888;2023-04-24T08:15:07;100115.94;;;9.28;100.00
32320;BME280;19080;51.750;5.888;2023-04-24T08:17:34;100046.69;;;8.79;100.00
32320;BME280;19080;51.750;5.888;2023-04-24T08:20:03;100098.94;;;9.01;100.00
32320;BME280;19080;51.750;5.888;2023-04-24T08:22:31;100056.28;;;8.68;100.00
32320;BME280;19080;51.750;5.888;2023-04-24T08:24:59;100141.47;;;9.20;100.00
32320;BME280;19080;51.750;5.888;2023-04-24T08:27:26;100086.41;;;8.82;100.00
32320;BME280;19080;51.750;5.888;2023-04-24T08:29:53;100136.09;;;9.10;100.00
32320;BME280;19080;51.750;5.888;2023-04-24T08:32:20;100143.13;;;9.07;100.00
32320;BME280;19080;51.750;5.888;2023-04-24T08:34:47;100142.09;;;8.94;100.00
32320;BME280;19080;51.750;5.888;2023-04-24T08:37:16;100159.84;;;9.03;100.00
32320;BME280;19080;51.750;5.888;2023-04-24T08:39:43;100138.53;;;8.89;100.00
32320;BME280;19080;51.750;5.888;2023-04-24T08:42:11;100181.09;;;9.12;100.00
32320;BME280;19080;51.750;5.888;2023-04-24T08:44:38;100198.00;;;9.25;100.00
32320;BME280;19080;51.750;5.888;2023-04-24T08:47:04;100162.41;;;8.95;100.00
32320;BME280;19080;51.750;5.888;2023-04-24T08:49:32;100194.47;;;9.23;100.00
32320;BME280;19080;51.750;5.888;2023-04-24T08:52:00;100221.06;;;9.35;100.00
32320;BME280;19080;51.750;5.888;2023-04-24T08:54:28;100127.03;;;8.87;100.00
32320;BME280;19080;51.750;5.888;2023-04-24T08:56:59;100206.84;;;9.27;100.00
32320;BME280;19080;51.750;5.888;2023-04-24T08:59:30;100177.63;;;9.16;100.00
32320;BME280;19080;51.750;5.888;2023-04-24T09:01:57;100014.09;;;8.00;100.00
32320;BME280;19080;51.750;5.888;2023-04-24T09:04:24;100229.03;;;9.36;100.00
32320;BME280;19080;51.750;5.888;2023-04-24T09:06:55;100244.91;;;9.35;100.00
32320;BME280;19080;51.750;5.888;2023-04-24T09:09:25;100155.09;;;8.73;100.00
32320;BME280;19080;51.750;5.888;2023-04-24T09:11:52;100179.91;;;8.84;100.00
32320;BME280;19080;51.750;5.888;2023-04-24T09:14:21;100217.22;;;9.05;100.00
32320;BME280;19080;51.750;5.888;2023-04-24T09:16:50;100260.69;;;9.26;100.00
32320;BME280;19080;51.750;5.888;2023-04-24T09:19:17;100261.53;;;9.22;100.00
32320;BME280;19080;51.750;5.888;2023-04-24T09:21:47;100263.34;;;9.26;100.00
32320;BME280;19080;51.750;5.888;2023-04-24T09:24:16;100252.69;;;9.20;100.00
32320;BME280;19080;51.750;5.888;2023-04-24T09:26:44;100272.22;;;9.31;100.00
32320;BME280;19080;51.750;5.888;2023-04-24T09:29:16;100283.72;;;9.34;100.00
32320;BME280;19080;51.750;5.888;2023-04-24T09:31:44;100301.72;;;9.64;100.00
32320;BME280;19080;51.750;5.888;2023-04-24T09:34:11;100203.47;;;9.41;100.00
32320;BME280;19080;51.750;5.888;2023-04-24T09:36:40;100285.31;;;10.05;100.00
32320;BME280;19080;51.750;5.888;2023-04-24T09:39:10;100270.50;;;10.27;100.00
32320;BME280;19080;51.750;5.888;2023-04-24T09:41:56;100294.47;;;10.47;100.00
32320;BME280;19080;51.750;5.888;2023-04-24T09:44:28;100272.00;;;9.97;100.00
32320;BME280;19080;51.750;5.888;2023-04-24T09:46:55;100328.00;;;10.32;100.00
32320;BME280;19080;51.750;5.888;2023-04-24T09:49:24;100245.41;;;9.88;100.00
32320;BME280;19080;51.750;5.888;2023-04-24T09:51:52;100314.53;;;10.13;100.00
32320;BME280;19080;51.750;5.888;2023-04-24T09:54:21;100355.44;;;10.40;100.00
32320;BME280;19080;51.750;5.888;2023-04-24T09:56:50;100334.16;;;10.28;100.00
32320;BME280;19080;51.750;5.888;2023-04-24T09:59:18;100358.25;;;10.62;100.00
32320;BME280;19080;51.750;5.888;2023-04-24T10:01:46;100340.38;;;10.33;100.00
32320;BME280;19080;51.750;5.888;2023-04-24T10:04:19;100360.81;;;10.48;100.00
32320;BME280;19080;51.750;5.888;2023-04-24T10:06:48;100355.75;;;10.82;100.00
32320;BME280;19080;51.750;5.888;2023-04-24T10:09:20;100315.13;;;10.98;100.00
32320;BME280;19080;51.750;5.888;2023-04-24T10:11:49;100342.75;;;11.41;100.00
32320;BME280;19080;51.750;5.888;2023-04-24T10:14:19;100346.25;;;11.28;100.00
32320;BME280;19080;51.750;5.888;2023-04-24T10:16:47;100371.31;;;11.95;100.00
32320;BME280;19080;51.750;5.888;2023-04-24T10:19:15;100342.94;;;12.02;100.00
32320;BME280;19080;51.750;5.888;2023-04-24T10:21:43;100361.56;;;12.05;100.00
32320;BME280;19080;51.750;5.888;2023-04-24T10:24:17;100309.19;;;11.77;100.00
32320;BME280;19080;51.750;5.888;2023-04-24T10:26:45;100377.34;;;11.49;100.00
32320;BME280;19080;51.750;5.888;2023-04-24T10:29:13;100358.75;;;11.56;100.00
32320;BME280;19080;51.750;5.888;2023-04-24T10:31:42;100393.47;;;11.90;100.00
32320;BME280;19080;51.750;5.888;2023-04-24T10:34:12;100401.47;;;12.08;100.00
32320;BME280;19080;51.750;5.888;2023-04-24T10:36:44;100408.56;;;12.06;100.00
32320;BME280;19080;51.750;5.888;2023-04-24T10:39:13;100392.56;;;11.82;100.00
32320;BME280;19080;51.750;5.888;2023-04-24T10:41:41;100379.06;;;11.40;100.00
32320;BME280;19080;51.750;5.888;2023-04-24T10:44:14;100384.34;;;11.33;100.00
32320;BME280;19080;51.750;5.888;2023-04-24T10:46:46;100424.41;;;11.76;100.00
32320;BME280;19080;51.750;5.888;2023-04-24T10:49:14;100404.00;;;11.70;100.00
32320;BME280;19080;51.750;5.888;2023-04-24T10:51:51;100399.66;;;11.86;100.00
32320;BME280;19080;51.750;5.888;2023-04-24T10:54:24;100412.13;;;12.05;100.00
32320;BME280;19080;51.750;5.888;2023-04-24T10:56:51;100372.06;;;11.61;100.00
32320;BME280;19080;51.750;5.888;2023-04-24T10:59:26;100437.75;;;11.80;100.00
32320;BME280;19080;51.750;5.888;2023-04-24T11:01:54;100358.47;;;10.95;100.00
32320;BME280;19080;51.750;5.888;2023-04-24T11:04:31;100405.56;;;11.22;100.00
32320;BME280;19080;51.750;5.888;2023-04-24T11:06:58;100450.84;;;11.45;100.00
32320;BME280;19080;51.750;5.888;2023-04-24T11:09:30;100450.94;;;11.60;100.00
32320;BME280;19080;51.750;5.888;2023-04-24T11:12:05;100465.09;;;11.56;100.00
32320;BME280;19080;51.750;5.888;2023-04-24T11:17:31;100452.94;;;12.13;100.00
32320;BME280;19080;51.750;5.888;2023-04-24T11:20:08;100465.38;;;12.45;100.00
32320;BME280;19080;51.750;5.888;2023-04-24T11:22:54;100460.06;;;12.78;100.00
32320;BME280;19080;51.750;5.888;2023-04-24T11:25:23;100419.22;;;13.03;100.00
32320;BME280;19080;51.750;5.888;2023-04-24T11:27:50;100388.16;;;12.77;100.00
32320;BME280;19080;51.750;5.888;2023-04-24T11:30:18;100395.28;;;12.53;100.00
32320;BME280;19080;51.750;5.888;2023-04-24T11:32:50;100429.00;;;12.73;100.00
32320;BME280;19080;51.750;5.888;2023-04-24T11:35:19;100423.69;;;12.56;100.00
32320;BME280;19080;51.750;5.888;2023-04-24T11:37:50;100441.41;;;12.32;100.00
32320;BME280;19080;51.750;5.888;2023-04-24T11:40:22;100480.47;;;12.47;100.00
32320;BME280;19080;51.750;5.888;2023-04-24T11:42:53;100487.50;;;12.18;100.00
32320;BME280;19080;51.750;5.888;2023-04-24T11:45:23;100424.25;;;11.42;100.00
32320;BME280;19080;51.750;5.888;2023-04-24T11:47:51;100480.09;;;11.45;100.00
32320;BME280;19080;51.750;5.888;2023-04-24T11:50:21;100488.06;;;11.45;100.00
32320;BME280;19080;51.750;5.888;2023-04-24T11:52:49;100478.13;;;11.15;100.00
32320;BME280;19080;51.750;5.888;2023-04-24T11:57:43;100500.84;;;10.78;100.00
32320;BME280;19080;51.750;5.888;2023-04-24T12:00:25;100518.59;;;10.84;100.00
32320;BME280;19080;51.750;5.888;2023-04-24T12:03:05;100527.25;;;10.64;100.00
32320;BME280;19080;51.750;5.888;2023-04-24T12:05:33;100420.31;;;9.84;100.00
32320;BME280;19080;51.750;5.888;2023-04-24T12:08:01;100536.97;;;10.64;100.00
32320;BME280;19080;51.750;5.888;2023-04-24T12:10:30;100494.47;;;10.58;100.00
32320;BME280;19080;51.750;5.888;2023-04-24T12:12:58;100531.09;;;10.97;100.00
32320;BME280;19080;51.750;5.888;2023-04-24T12:15:27;100503.78;;;11.12;100.00
32320;BME280;19080;51.750;5.888;2023-04-24T12:17:54;100521.75;;;11.49;100.00
32320;BME280;19080;51.750;5.888;2023-04-24T12:20:28;100520.09;;;11.72;100.00
32320;BME280;19080;51.750;5.888;2023-04-24T12:22:57;100477.66;;;11.85;100.00
32320;BME280;19080;51.750;5.888;2023-04-24T12:25:31;100534.59;;;12.48;100.00
32320;BME280;19080;51.750;5.888;2023-04-24T12:30:39;100540.88;;;12.88;100.00
32320;BME280;19080;51.750;5.888;2023-04-24T12:33:06;100536.44;;;13.13;100.00
32320;BME280;19080;51.750;5.888;2023-04-24T12:35:33;100532.91;;;13.21;100.00
32320;BME280;19080;51.750;5.888;2023-04-24T12:38:13;100541.78;;;13.40;100.00
32320;BME280;19080;51.750;5.888;2023-04-24T12:40:42;100522.19;;;12.65;100.00
32320;BME280;19080;51.750;5.888;2023-04-24T12:43:19;100525.59;;;11.97;100.00
32320;BME280;19080;51.750;5.888;2023-04-24T12:45:47;100569.03;;;11.99;100.00
32320;BME280;19080;51.750;5.888;2023-04-24T12:48:14;100559.00;;;11.57;100.00
32320;BME280;19080;51.750;5.888;2023-04-24T12:50:41;100548.16;;;11.28;100.00
32320;BME280;19080;51.750;5.888;2023-04-24T12:53:12;100540.84;;;10.99;100.00
32320;BME280;19080;51.750;5.888;2023-04-24T12:55:38;100538.66;;;10.56;100.00
32320;BME280;19080;51.750;5.888;2023-04-24T12:58:05;100524.16;;;10.20;100.00
32320;BME280;19080;51.750;5.888;2023-04-24T13:00:32;100579.91;;;10.25;100.00
32320;BME280;19080;51.750;5.888;2023-04-24T13:03:00;100545.91;;;9.95;100.00
32320;BME280;19080;51.750;5.888;2023-04-24T13:05:28;100567.50;;;10.21;100.00
32320;BME280;19080;51.750;5.888;2023-04-24T13:07:55;100362.38;;;9.40;100.00
32320;BME280;19080;51.750;5.888;2023-04-24T13:10:21;100539.28;;;11.23;100.00